This is the latest recevied weather packets stored in our database for station/object KE0YJJ-14. If no packets are shown the sender has not sent any weather packets the latest 10 day(s).
| Time | Temp. | Humidity | Pressure | Rain* | Wind** | Luminosity | Snow |
|---|---|---|---|---|---|---|---|
| 1777528138 | 5.56° C | 74% | - | 0 mm | - | - | - |
| 1777527834 | 5.56° C | 74% | - | 0 mm | - | - | - |
| 1777527529 | 5° C | 74% | - | 0 mm | - | - | - |
| 1777527224 | 5° C | 74% | - | 0 mm | - | - | - |
| 1777526920 | 5° C | 73% | - | 0 mm | - | - | - |
| 1777526616 | 5° C | 72% | - | 0 mm | - | - | - |
| 1777526310 | 5.56° C | 67% | - | 0 mm | - | - | - |
| 1777526007 | 5.56° C | 67% | - | 0 mm | - | - | - |
| 1777525704 | 6.11° C | 67% | - | 0 mm | - | - | - |
| 1777525401 | 6.67° C | 66% | - | 0 mm | - | - | - |
| 1777525097 | 6.67° C | 66% | - | 0 mm | - | - | - |
| 1777524794 | 6.67° C | 65% | - | 0 mm | - | - | - |
| 1777524492 | 6.67° C | 66% | - | 0 mm | - | - | - |
| 1777524189 | 6.67° C | 65% | - | 0 mm | - | - | - |
| 1777523884 | 7.22° C | 65% | - | 0 mm | - | - | - |
| 1777523581 | 6.67° C | 65% | - | 0 mm | - | - | - |
| 1777523277 | 6.67° C | 64% | - | 0 mm | - | - | - |
| 1777522973 | 6.67° C | 64% | - | 0 mm | - | - | - |
| 1777522671 | 6.67° C | 64% | - | 0 mm | - | - | - |
| 1777522367 | 6.67° C | 65% | - | 0 mm | - | - | - |
| 1777522064 | 6.11° C | 67% | - | 0 mm | - | - | - |
| 1777521761 | 6.11° C | 68% | - | 0 mm | - | - | - |
| 1777521457 | 6.11° C | 68% | - | 0 mm | - | - | - |
| 1777521154 | 6.11° C | 67% | - | 0 mm | - | - | - |
| 1777520852 | 6.67° C | 65% | - | 0 mm | - | - | - |
* Rain latest hour (hover to see other rain measurements)
** Current wind speed in m/s (hover to see current wind gust speed)